Main page
METAR-TAF:

METAR-TAF

Airports :

Kiel Airport

Kiel, Germany

latitude: 54-23N, longitude: 010-10E, elevation: 31 m

Current weather observation

The report was made 12 minutes ago, at 19:50 UTC
Wind 4 kt from the South
Temperature 4°C
Humidity 81%
Pressure 1028 hPa
Visibility 10 km or more

METAR: EDHK 281950Z AUTO 17004KT 9999 // OVC028/// 04/01 Q1028

Time: 21:02 (20:02 UTC)

Forecast

The report was made 6 hours and 2 minutes ago, at 14:00 UTC
Forecast valid from 28 at 15 UTC to 28 at 19 UTC
Wind 4 kt from the Southeast
Visibility 10 km or more
Broken clouds at a height of 1500 ft
Probability 30% :
Temporary
from 28 at 15 UTC to 28 at 17 UTC
Broken clouds at a height of 1400 ft

TAF: EDHK 281400Z 2815/2819 14004KT 9999 BKN015 PROB30 TEMPO 2815/2817 BKN014

Weather observations and forecasts of more than 4000 airports (METAR and TAF reports).

The available stations are represented by yellow and red dots on the map.

Hover mouse over dot to see the name of the station.

Then click to see weather observations and forecasts.

To change the map : click on the green buttons with a black cross to zoom in, on the green button with a dash to zoom out, or on the green arrows for adjacent maps.


METAR-TAF: